sensor_id;sensor_type;location;lat;lon;timestamp;P1;durP1;ratioP1;P2;durP2;ratioP2
20399;SDS011;10359;53.596;22.520;2022-10-31T00:00:39;12.53;;;6.00;;
20399;SDS011;10359;53.596;22.520;2022-10-31T00:03:29;13.17;;;5.37;;
20399;SDS011;10359;53.596;22.520;2022-10-31T00:06:18;12.30;;;6.13;;
20399;SDS011;10359;53.596;22.520;2022-10-31T00:09:08;9.23;;;4.93;;
20399;SDS011;10359;53.596;22.520;2022-10-31T00:11:58;12.93;;;5.80;;
20399;SDS011;10359;53.596;22.520;2022-10-31T00:14:49;13.90;;;5.47;;
20399;SDS011;10359;53.596;22.520;2022-10-31T00:17:39;11.00;;;5.73;;
20399;SDS011;10359;53.596;22.520;2022-10-31T00:20:28;11.87;;;5.33;;
20399;SDS011;10359;53.596;22.520;2022-10-31T00:23:19;13.27;;;6.07;;
20399;SDS011;10359;53.596;22.520;2022-10-31T00:26:08;17.03;;;6.37;;
20399;SDS011;10359;53.596;22.520;2022-10-31T00:28:57;19.60;;;6.33;;
20399;SDS011;10359;53.596;22.520;2022-10-31T00:31:47;13.50;;;5.73;;
20399;SDS011;10359;53.596;22.520;2022-10-31T00:34:38;13.07;;;6.03;;
20399;SDS011;10359;53.596;22.520;2022-10-31T00:37:27;15.33;;;5.53;;
20399;SDS011;10359;53.596;22.520;2022-10-31T00:40:16;11.10;;;5.70;;
20399;SDS011;10359;53.596;22.520;2022-10-31T00:43:06;14.33;;;5.20;;
20399;SDS011;10359;53.596;22.520;2022-10-31T00:45:55;13.23;;;5.80;;
20399;SDS011;10359;53.596;22.520;2022-10-31T00:48:44;19.37;;;6.03;;
20399;SDS011;10359;53.596;22.520;2022-10-31T00:51:35;12.43;;;6.00;;
20399;SDS011;10359;53.596;22.520;2022-10-31T00:54:24;16.50;;;6.27;;
20399;SDS011;10359;53.596;22.520;2022-10-31T00:57:13;17.07;;;6.27;;
20399;SDS011;10359;53.596;22.520;2022-10-31T01:00:02;11.83;;;5.43;;
20399;SDS011;10359;53.596;22.520;2022-10-31T01:02:52;12.80;;;5.03;;
20399;SDS011;10359;53.596;22.520;2022-10-31T01:05:42;12.17;;;5.33;;
20399;SDS011;10359;53.596;22.520;2022-10-31T01:08:33;12.50;;;5.77;;
20399;SDS011;10359;53.596;22.520;2022-10-31T01:11:22;10.40;;;5.70;;
20399;SDS011;10359;53.596;22.520;2022-10-31T01:14:12;13.13;;;5.40;;
20399;SDS011;10359;53.596;22.520;2022-10-31T01:17:02;11.07;;;4.70;;
20399;SDS011;10359;53.596;22.520;2022-10-31T01:19:51;9.77;;;4.90;;
20399;SDS011;10359;53.596;22.520;2022-10-31T01:22:41;12.47;;;5.40;;
20399;SDS011;10359;53.596;22.520;2022-10-31T01:25:32;13.33;;;5.67;;
20399;SDS011;10359;53.596;22.520;2022-10-31T01:28:21;10.47;;;5.30;;
20399;SDS011;10359;53.596;22.520;2022-10-31T01:31:11;11.23;;;5.67;;
20399;SDS011;10359;53.596;22.520;2022-10-31T01:34:01;11.87;;;5.37;;
20399;SDS011;10359;53.596;22.520;2022-10-31T01:36:51;15.20;;;5.57;;
20399;SDS011;10359;53.596;22.520;2022-10-31T01:39:40;14.40;;;5.77;;
20399;SDS011;10359;53.596;22.520;2022-10-31T01:42:31;12.17;;;5.40;;
20399;SDS011;10359;53.596;22.520;2022-10-31T01:45:21;14.83;;;5.60;;
20399;SDS011;10359;53.596;22.520;2022-10-31T01:48:11;13.73;;;5.67;;
20399;SDS011;10359;53.596;22.520;2022-10-31T01:51:04;13.30;;;6.07;;
20399;SDS011;10359;53.596;22.520;2022-10-31T01:53:54;9.33;;;4.33;;
20399;SDS011;10359;53.596;22.520;2022-10-31T01:56:47;12.00;;;4.63;;
20399;SDS011;10359;53.596;22.520;2022-10-31T01:59:41;12.27;;;5.37;;
20399;SDS011;10359;53.596;22.520;2022-10-31T02:02:34;10.20;;;5.40;;
20399;SDS011;10359;53.596;22.520;2022-10-31T02:05:24;8.57;;;4.90;;
20399;SDS011;10359;53.596;22.520;2022-10-31T02:08:16;11.67;;;4.40;;
20399;SDS011;10359;53.596;22.520;2022-10-31T02:11:11;8.60;;;5.20;;
20399;SDS011;10359;53.596;22.520;2022-10-31T02:14:02;13.40;;;5.43;;
20399;SDS011;10359;53.596;22.520;2022-10-31T02:16:54;15.33;;;5.73;;
20399;SDS011;10359;53.596;22.520;2022-10-31T02:19:46;11.93;;;5.07;;
20399;SDS011;10359;53.596;22.520;2022-10-31T02:22:48;17.37;;;5.93;;
20399;SDS011;10359;53.596;22.520;2022-10-31T02:26:12;18.87;;;5.73;;
20399;SDS011;10359;53.596;22.520;2022-10-31T02:35:55;10.90;;;4.87;;
20399;SDS011;10359;53.596;22.520;2022-10-31T02:39:10;9.60;;;4.53;;
20399;SDS011;10359;53.596;22.520;2022-10-31T02:42:07;13.30;;;5.30;;
20399;SDS011;10359;53.596;22.520;2022-10-31T02:45:00;15.37;;;5.90;;
20399;SDS011;10359;53.596;22.520;2022-10-31T02:47:58;12.53;;;5.70;;
20399;SDS011;10359;53.596;22.520;2022-10-31T02:50:55;7.47;;;4.80;;
20399;SDS011;10359;53.596;22.520;2022-10-31T02:53:47;11.63;;;4.83;;
20399;SDS011;10359;53.596;22.520;2022-10-31T02:56:37;13.33;;;5.10;;
20399;SDS011;10359;53.596;22.520;2022-10-31T02:59:26;13.70;;;4.97;;
20399;SDS011;10359;53.596;22.520;2022-10-31T03:02:29;8.80;;;4.70;;
20399;SDS011;10359;53.596;22.520;2022-10-31T03:05:36;10.63;;;4.87;;
20399;SDS011;10359;53.596;22.520;2022-10-31T03:08:37;12.40;;;5.10;;
20399;SDS011;10359;53.596;22.520;2022-10-31T03:11:37;9.57;;;4.90;;
20399;SDS011;10359;53.596;22.520;2022-10-31T03:14:36;12.00;;;5.63;;
20399;SDS011;10359;53.596;22.520;2022-10-31T03:17:32;11.47;;;5.60;;
20399;SDS011;10359;53.596;22.520;2022-10-31T03:20:26;10.83;;;5.57;;
20399;SDS011;10359;53.596;22.520;2022-10-31T03:23:20;15.83;;;6.07;;
20399;SDS011;10359;53.596;22.520;2022-10-31T03:26:12;6.83;;;4.50;;
20399;SDS011;10359;53.596;22.520;2022-10-31T03:29:05;16.70;;;6.33;;
20399;SDS011;10359;53.596;22.520;2022-10-31T03:31:55;7.67;;;4.30;;
20399;SDS011;10359;53.596;22.520;2022-10-31T03:34:47;15.77;;;5.80;;
20399;SDS011;10359;53.596;22.520;2022-10-31T03:37:39;9.80;;;5.13;;
20399;SDS011;10359;53.596;22.520;2022-10-31T03:40:31;10.30;;;5.17;;
20399;SDS011;10359;53.596;22.520;2022-10-31T03:43:24;9.13;;;4.77;;
20399;SDS011;10359;53.596;22.520;2022-10-31T03:46:17;9.70;;;4.73;;
20399;SDS011;10359;53.596;22.520;2022-10-31T03:49:06;8.97;;;5.00;;
20399;SDS011;10359;53.596;22.520;2022-10-31T03:51:57;10.07;;;5.07;;
20399;SDS011;10359;53.596;22.520;2022-10-31T03:54:52;11.43;;;4.97;;
20399;SDS011;10359;53.596;22.520;2022-10-31T03:57:48;10.53;;;4.50;;
20399;SDS011;10359;53.596;22.520;2022-10-31T04:00:43;12.13;;;5.50;;
20399;SDS011;10359;53.596;22.520;2022-10-31T04:03:34;11.80;;;4.80;;
20399;SDS011;10359;53.596;22.520;2022-10-31T04:06:26;13.33;;;5.37;;
20399;SDS011;10359;53.596;22.520;2022-10-31T04:09:18;13.60;;;5.77;;
20399;SDS011;10359;53.596;22.520;2022-10-31T04:12:08;17.43;;;6.03;;
20399;SDS011;10359;53.596;22.520;2022-10-31T04:15:04;13.40;;;5.17;;
20399;SDS011;10359;53.596;22.520;2022-10-31T04:17:55;11.60;;;5.30;;
20399;SDS011;10359;53.596;22.520;2022-10-31T04:20:48;10.80;;;5.40;;
20399;SDS011;10359;53.596;22.520;2022-10-31T04:23:37;11.57;;;5.57;;
20399;SDS011;10359;53.596;22.520;2022-10-31T04:26:26;7.40;;;4.33;;
20399;SDS011;10359;53.596;22.520;2022-10-31T04:29:16;12.57;;;5.90;;
20399;SDS011;10359;53.596;22.520;2022-10-31T04:32:06;16.77;;;6.40;;
20399;SDS011;10359;53.596;22.520;2022-10-31T04:34:57;13.70;;;5.93;;
20399;SDS011;10359;53.596;22.520;2022-10-31T04:37:46;7.17;;;4.70;;
20399;SDS011;10359;53.596;22.520;2022-10-31T04:40:35;11.00;;;5.10;;
20399;SDS011;10359;53.596;22.520;2022-10-31T04:43:25;12.13;;;5.50;;
20399;SDS011;10359;53.596;22.520;2022-10-31T04:46:14;10.17;;;5.50;;
20399;SDS011;10359;53.596;22.520;2022-10-31T04:49:05;10.13;;;5.60;;
20399;SDS011;10359;53.596;22.520;2022-10-31T04:51:54;16.37;;;6.23;;
20399;SDS011;10359;53.596;22.520;2022-10-31T04:54:43;14.80;;;6.13;;
20399;SDS011;10359;53.596;22.520;2022-10-31T04:57:39;10.07;;;4.93;;
20399;SDS011;10359;53.596;22.520;2022-10-31T05:00:29;10.90;;;4.80;;
20399;SDS011;10359;53.596;22.520;2022-10-31T05:03:18;9.17;;;5.03;;
20399;SDS011;10359;53.596;22.520;2022-10-31T05:06:09;9.60;;;4.73;;
20399;SDS011;10359;53.596;22.520;2022-10-31T05:08:58;8.67;;;4.77;;
20399;SDS011;10359;53.596;22.520;2022-10-31T05:11:48;7.97;;;4.47;;
20399;SDS011;10359;53.596;22.520;2022-10-31T05:14:37;10.30;;;4.63;;
20399;SDS011;10359;53.596;22.520;2022-10-31T05:17:31;9.10;;;5.00;;
20399;SDS011;10359;53.596;22.520;2022-10-31T05:20:22;6.13;;;3.87;;
20399;SDS011;10359;53.596;22.520;2022-10-31T05:23:15;9.50;;;3.93;;
20399;SDS011;10359;53.596;22.520;2022-10-31T05:26:04;12.97;;;5.07;;
20399;SDS011;10359;53.596;22.520;2022-10-31T05:28:53;9.40;;;4.33;;
20399;SDS011;10359;53.596;22.520;2022-10-31T05:31:43;7.40;;;4.37;;
20399;SDS011;10359;53.596;22.520;2022-10-31T05:34:32;6.63;;;3.87;;
20399;SDS011;10359;53.596;22.520;2022-10-31T05:37:22;9.13;;;4.67;;
20399;SDS011;10359;53.596;22.520;2022-10-31T05:40:13;6.97;;;4.00;;
20399;SDS011;10359;53.596;22.520;2022-10-31T05:43:04;9.47;;;4.27;;
20399;SDS011;10359;53.596;22.520;2022-10-31T05:45:53;10.03;;;4.67;;
20399;SDS011;10359;53.596;22.520;2022-10-31T05:48:43;5.30;;;4.00;;
20399;SDS011;10359;53.596;22.520;2022-10-31T05:51:32;9.83;;;4.27;;
20399;SDS011;10359;53.596;22.520;2022-10-31T05:54:21;5.90;;;4.23;;
20399;SDS011;10359;53.596;22.520;2022-10-31T05:57:12;15.47;;;9.87;;
20399;SDS011;10359;53.596;22.520;2022-10-31T06:00:02;18.90;;;12.30;;
20399;SDS011;10359;53.596;22.520;2022-10-31T06:02:57;18.73;;;10.93;;
20399;SDS011;10359;53.596;22.520;2022-10-31T06:05:47;13.83;;;7.93;;
20399;SDS011;10359;53.596;22.520;2022-10-31T06:08:41;7.70;;;5.33;;
20399;SDS011;10359;53.596;22.520;2022-10-31T06:11:30;8.20;;;5.30;;
20399;SDS011;10359;53.596;22.520;2022-10-31T06:14:21;13.07;;;6.90;;
20399;SDS011;10359;53.596;22.520;2022-10-31T06:17:10;20.10;;;9.83;;
20399;SDS011;10359;53.596;22.520;2022-10-31T06:20:00;18.97;;;10.13;;
20399;SDS011;10359;53.596;22.520;2022-10-31T06:22:50;17.90;;;7.90;;
20399;SDS011;10359;53.596;22.520;2022-10-31T06:25:39;10.00;;;5.90;;
20399;SDS011;10359;53.596;22.520;2022-10-31T06:28:29;7.27;;;4.97;;
20399;SDS011;10359;53.596;22.520;2022-10-31T06:31:19;9.63;;;6.00;;
20399;SDS011;10359;53.596;22.520;2022-10-31T06:34:09;12.80;;;7.30;;
20399;SDS011;10359;53.596;22.520;2022-10-31T06:36:58;12.00;;;6.37;;
20399;SDS011;10359;53.596;22.520;2022-10-31T06:39:48;9.97;;;5.30;;
20399;SDS011;10359;53.596;22.520;2022-10-31T06:42:37;11.77;;;5.90;;
20399;SDS011;10359;53.596;22.520;2022-10-31T06:45:26;16.50;;;7.83;;
20399;SDS011;10359;53.596;22.520;2022-10-31T06:48:17;11.97;;;6.90;;
20399;SDS011;10359;53.596;22.520;2022-10-31T06:51:08;17.23;;;7.60;;
20399;SDS011;10359;53.596;22.520;2022-10-31T06:53:57;16.20;;;7.20;;
20399;SDS011;10359;53.596;22.520;2022-10-31T06:56:46;17.43;;;7.60;;
20399;SDS011;10359;53.596;22.520;2022-10-31T06:59:36;14.03;;;7.00;;
20399;SDS011;10359;53.596;22.520;2022-10-31T07:02:25;13.37;;;7.03;;
20399;SDS011;10359;53.596;22.520;2022-10-31T07:05:16;18.23;;;8.47;;
20399;SDS011;10359;53.596;22.520;2022-10-31T07:08:06;16.63;;;7.13;;
20399;SDS011;10359;53.596;22.520;2022-10-31T07:10:57;13.13;;;6.87;;
20399;SDS011;10359;53.596;22.520;2022-10-31T07:13:47;12.87;;;6.53;;
20399;SDS011;10359;53.596;22.520;2022-10-31T07:16:36;15.20;;;6.70;;
20399;SDS011;10359;53.596;22.520;2022-10-31T07:19:25;13.03;;;7.20;;
20399;SDS011;10359;53.596;22.520;2022-10-31T07:22:16;14.77;;;7.43;;
20399;SDS011;10359;53.596;22.520;2022-10-31T07:25:06;13.63;;;8.10;;
20399;SDS011;10359;53.596;22.520;2022-10-31T07:27:55;15.93;;;7.90;;
20399;SDS011;10359;53.596;22.520;2022-10-31T07:30:49;20.40;;;10.10;;
20399;SDS011;10359;53.596;22.520;2022-10-31T07:33:39;17.27;;;10.50;;
20399;SDS011;10359;53.596;22.520;2022-10-31T07:36:28;26.23;;;13.37;;
20399;SDS011;10359;53.596;22.520;2022-10-31T07:39:19;35.53;;;17.20;;
20399;SDS011;10359;53.596;22.520;2022-10-31T07:42:08;29.17;;;13.93;;
20399;SDS011;10359;53.596;22.520;2022-10-31T07:44:57;20.73;;;12.20;;
20399;SDS011;10359;53.596;22.520;2022-10-31T07:47:47;15.17;;;8.80;;
20399;SDS011;10359;53.596;22.520;2022-10-31T07:50:38;20.07;;;9.23;;
20399;SDS011;10359;53.596;22.520;2022-10-31T07:53:27;15.37;;;9.23;;
20399;SDS011;10359;53.596;22.520;2022-10-31T07:56:18;16.07;;;8.93;;
20399;SDS011;10359;53.596;22.520;2022-10-31T07:59:07;13.07;;;8.70;;
20399;SDS011;10359;53.596;22.520;2022-10-31T08:01:56;13.37;;;8.97;;
20399;SDS011;10359;53.596;22.520;2022-10-31T08:04:45;9.90;;;7.43;;
20399;SDS011;10359;53.596;22.520;2022-10-31T08:07:35;11.43;;;7.20;;
20399;SDS011;10359;53.596;22.520;2022-10-31T08:10:26;15.03;;;7.53;;
20399;SDS011;10359;53.596;22.520;2022-10-31T08:13:17;12.70;;;7.60;;
20399;SDS011;10359;53.596;22.520;2022-10-31T08:16:06;11.30;;;7.27;;
20399;SDS011;10359;53.596;22.520;2022-10-31T08:18:55;10.43;;;7.00;;
20399;SDS011;10359;53.596;22.520;2022-10-31T08:21:45;11.27;;;6.67;;
20399;SDS011;10359;53.596;22.520;2022-10-31T08:24:34;9.13;;;6.70;;
20399;SDS011;10359;53.596;22.520;2022-10-31T08:27:28;9.40;;;6.43;;
20399;SDS011;10359;53.596;22.520;2022-10-31T08:30:19;9.50;;;7.13;;
20399;SDS011;10359;53.596;22.520;2022-10-31T08:33:10;11.40;;;7.00;;
20399;SDS011;10359;53.596;22.520;2022-10-31T08:36:00;12.50;;;8.27;;
20399;SDS011;10359;53.596;22.520;2022-10-31T08:38:50;13.00;;;8.37;;
20399;SDS011;10359;53.596;22.520;2022-10-31T08:41:47;21.63;;;12.33;;
20399;SDS011;10359;53.596;22.520;2022-10-31T08:44:37;17.63;;;10.20;;
20399;SDS011;10359;53.596;22.520;2022-10-31T08:47:28;12.80;;;8.57;;
20399;SDS011;10359;53.596;22.520;2022-10-31T08:50:18;8.47;;;5.17;;
20399;SDS011;10359;53.596;22.520;2022-10-31T08:53:09;10.00;;;5.67;;
20399;SDS011;10359;53.596;22.520;2022-10-31T08:55:59;8.90;;;5.90;;
20399;SDS011;10359;53.596;22.520;2022-10-31T08:58:49;7.77;;;5.20;;
20399;SDS011;10359;53.596;22.520;2022-10-31T09:01:39;8.40;;;6.40;;
20399;SDS011;10359;53.596;22.520;2022-10-31T09:04:30;10.83;;;5.60;;
20399;SDS011;10359;53.596;22.520;2022-10-31T09:07:19;9.00;;;5.10;;
20399;SDS011;10359;53.596;22.520;2022-10-31T09:10:08;7.73;;;5.13;;
20399;SDS011;10359;53.596;22.520;2022-10-31T09:12:57;7.53;;;5.10;;
20399;SDS011;10359;53.596;22.520;2022-10-31T09:15:48;9.83;;;4.90;;
20399;SDS011;10359;53.596;22.520;2022-10-31T09:18:38;9.00;;;4.43;;
20399;SDS011;10359;53.596;22.520;2022-10-31T09:21:29;10.87;;;3.83;;
20399;SDS011;10359;53.596;22.520;2022-10-31T09:24:18;7.37;;;3.13;;
20399;SDS011;10359;53.596;22.520;2022-10-31T09:27:07;10.30;;;3.23;;
20399;SDS011;10359;53.596;22.520;2022-10-31T09:29:57;7.10;;;2.90;;
20399;SDS011;10359;53.596;22.520;2022-10-31T09:32:46;5.80;;;2.83;;
20399;SDS011;10359;53.596;22.520;2022-10-31T09:35:35;4.23;;;2.43;;
20399;SDS011;10359;53.596;22.520;2022-10-31T09:38:26;4.30;;;2.10;;
20399;SDS011;10359;53.596;22.520;2022-10-31T09:41:17;6.00;;;2.77;;
20399;SDS011;10359;53.596;22.520;2022-10-31T09:44:14;11.83;;;2.80;;
20399;SDS011;10359;53.596;22.520;2022-10-31T09:47:12;5.27;;;2.83;;
20399;SDS011;10359;53.596;22.520;2022-10-31T09:50:12;6.07;;;2.80;;
20399;SDS011;10359;53.596;22.520;2022-10-31T09:53:08;5.60;;;2.57;;
20399;SDS011;10359;53.596;22.520;2022-10-31T09:56:02;6.23;;;2.60;;
20399;SDS011;10359;53.596;22.520;2022-10-31T09:58:55;7.57;;;2.50;;
20399;SDS011;10359;53.596;22.520;2022-10-31T10:01:54;6.13;;;2.77;;
20399;SDS011;10359;53.596;22.520;2022-10-31T10:04:48;4.93;;;2.47;;
20399;SDS011;10359;53.596;22.520;2022-10-31T10:07:49;5.73;;;2.80;;
20399;SDS011;10359;53.596;22.520;2022-10-31T10:10:45;6.63;;;2.43;;
20399;SDS011;10359;53.596;22.520;2022-10-31T10:13:47;4.73;;;2.43;;
20399;SDS011;10359;53.596;22.520;2022-10-31T10:16:48;6.83;;;2.67;;
20399;SDS011;10359;53.596;22.520;2022-10-31T10:19:53;5.60;;;2.87;;
20399;SDS011;10359;53.596;22.520;2022-10-31T10:23:13;4.67;;;2.53;;
20399;SDS011;10359;53.596;22.520;2022-10-31T10:26:15;7.07;;;2.60;;
20399;SDS011;10359;53.596;22.520;2022-10-31T10:29:12;5.50;;;2.50;;
20399;SDS011;10359;53.596;22.520;2022-10-31T10:32:12;7.20;;;2.80;;
20399;SDS011;10359;53.596;22.520;2022-10-31T10:35:11;5.87;;;3.00;;
20399;SDS011;10359;53.596;22.520;2022-10-31T10:38:10;8.33;;;2.97;;
20399;SDS011;10359;53.596;22.520;2022-10-31T10:41:07;4.33;;;2.77;;
20399;SDS011;10359;53.596;22.520;2022-10-31T10:44:01;7.77;;;3.23;;
20399;SDS011;10359;53.596;22.520;2022-10-31T10:46:58;7.43;;;3.10;;
20399;SDS011;10359;53.596;22.520;2022-10-31T10:50:07;7.73;;;2.93;;
20399;SDS011;10359;53.596;22.520;2022-10-31T10:53:02;4.87;;;2.50;;
20399;SDS011;10359;53.596;22.520;2022-10-31T10:56:11;4.93;;;2.73;;
20399;SDS011;10359;53.596;22.520;2022-10-31T10:59:03;5.07;;;2.60;;
20399;SDS011;10359;53.596;22.520;2022-10-31T11:01:53;5.40;;;2.90;;
20399;SDS011;10359;53.596;22.520;2022-10-31T11:04:44;6.83;;;3.13;;
20399;SDS011;10359;53.596;22.520;2022-10-31T11:07:37;6.10;;;2.93;;
20399;SDS011;10359;53.596;22.520;2022-10-31T11:10:27;5.17;;;3.03;;
20399;SDS011;10359;53.596;22.520;2022-10-31T11:13:19;5.70;;;3.00;;
20399;SDS011;10359;53.596;22.520;2022-10-31T11:16:13;2.73;;;2.40;;
20399;SDS011;10359;53.596;22.520;2022-10-31T11:19:07;8.07;;;2.80;;
20399;SDS011;10359;53.596;22.520;2022-10-31T11:22:07;6.07;;;2.50;;
20399;SDS011;10359;53.596;22.520;2022-10-31T11:25:14;6.50;;;2.80;;
20399;SDS011;10359;53.596;22.520;2022-10-31T11:28:09;5.73;;;2.70;;
20399;SDS011;10359;53.596;22.520;2022-10-31T11:30:59;6.03;;;2.50;;
20399;SDS011;10359;53.596;22.520;2022-10-31T11:33:55;5.27;;;2.40;;
20399;SDS011;10359;53.596;22.520;2022-10-31T11:36:46;7.53;;;2.67;;
20399;SDS011;10359;53.596;22.520;2022-10-31T11:39:40;4.37;;;2.33;;
20399;SDS011;10359;53.596;22.520;2022-10-31T11:42:34;4.53;;;2.17;;
20399;SDS011;10359;53.596;22.520;2022-10-31T11:45:28;5.47;;;2.23;;
20399;SDS011;10359;53.596;22.520;2022-10-31T11:48:21;4.33;;;2.00;;
20399;SDS011;10359;53.596;22.520;2022-10-31T11:51:12;4.50;;;2.00;;
20399;SDS011;10359;53.596;22.520;2022-10-31T11:54:17;5.57;;;2.30;;
20399;SDS011;10359;53.596;22.520;2022-10-31T11:57:22;3.20;;;2.10;;
20399;SDS011;10359;53.596;22.520;2022-10-31T12:00:20;3.23;;;1.83;;
20399;SDS011;10359;53.596;22.520;2022-10-31T12:03:13;4.47;;;1.87;;
20399;SDS011;10359;53.596;22.520;2022-10-31T12:06:18;4.63;;;2.03;;
20399;SDS011;10359;53.596;22.520;2022-10-31T12:09:16;4.63;;;1.97;;
20399;SDS011;10359;53.596;22.520;2022-10-31T12:12:11;5.53;;;2.00;;
20399;SDS011;10359;53.596;22.520;2022-10-31T12:15:29;3.00;;;1.60;;
20399;SDS011;10359;53.596;22.520;2022-10-31T12:18:33;5.50;;;2.03;;
20399;SDS011;10359;53.596;22.520;2022-10-31T12:21:45;3.27;;;1.80;;
20399;SDS011;10359;53.596;22.520;2022-10-31T12:24:52;5.07;;;2.13;;
20399;SDS011;10359;53.596;22.520;2022-10-31T12:27:54;3.73;;;1.90;;
20399;SDS011;10359;53.596;22.520;2022-10-31T12:30:57;5.90;;;2.10;;
20399;SDS011;10359;53.596;22.520;2022-10-31T12:34:00;4.17;;;1.87;;
20399;SDS011;10359;53.596;22.520;2022-10-31T12:37:04;4.73;;;1.80;;
20399;SDS011;10359;53.596;22.520;2022-10-31T12:40:02;5.00;;;1.77;;
20399;SDS011;10359;53.596;22.520;2022-10-31T12:43:05;3.53;;;1.60;;
20399;SDS011;10359;53.596;22.520;2022-10-31T12:46:06;4.83;;;1.90;;
20399;SDS011;10359;53.596;22.520;2022-10-31T12:49:05;3.90;;;1.90;;
20399;SDS011;10359;53.596;22.520;2022-10-31T12:52:15;3.93;;;1.50;;
20399;SDS011;10359;53.596;22.520;2022-10-31T12:55:24;4.00;;;1.70;;
20399;SDS011;10359;53.596;22.520;2022-10-31T12:58:28;5.47;;;1.80;;
20399;SDS011;10359;53.596;22.520;2022-10-31T13:01:22;2.90;;;1.70;;
20399;SDS011;10359;53.596;22.520;2022-10-31T13:04:19;3.33;;;1.77;;
20399;SDS011;10359;53.596;22.520;2022-10-31T13:07:20;6.43;;;2.10;;
20399;SDS011;10359;53.596;22.520;2022-10-31T13:10:15;5.40;;;2.30;;
20399;SDS011;10359;53.596;22.520;2022-10-31T13:13:11;6.80;;;2.10;;
20399;SDS011;10359;53.596;22.520;2022-10-31T13:16:07;3.27;;;1.80;;
20399;SDS011;10359;53.596;22.520;2022-10-31T13:19:02;6.93;;;2.23;;
20399;SDS011;10359;53.596;22.520;2022-10-31T13:21:57;6.20;;;2.10;;
20399;SDS011;10359;53.596;22.520;2022-10-31T13:24:53;4.63;;;2.00;;
20399;SDS011;10359;53.596;22.520;2022-10-31T13:27:48;3.80;;;1.63;;
20399;SDS011;10359;53.596;22.520;2022-10-31T13:30:41;4.23;;;1.90;;
20399;SDS011;10359;53.596;22.520;2022-10-31T13:33:34;4.13;;;1.80;;
20399;SDS011;10359;53.596;22.520;2022-10-31T13:36:29;5.13;;;1.90;;
20399;SDS011;10359;53.596;22.520;2022-10-31T13:39:23;4.97;;;1.93;;
20399;SDS011;10359;53.596;22.520;2022-10-31T13:42:27;3.60;;;1.90;;
20399;SDS011;10359;53.596;22.520;2022-10-31T13:45:26;5.07;;;2.00;;
20399;SDS011;10359;53.596;22.520;2022-10-31T13:48:28;5.60;;;2.00;;
20399;SDS011;10359;53.596;22.520;2022-10-31T13:51:28;4.77;;;1.77;;
20399;SDS011;10359;53.596;22.520;2022-10-31T13:54:20;3.43;;;1.87;;
20399;SDS011;10359;53.596;22.520;2022-10-31T13:57:18;4.60;;;1.90;;
20399;SDS011;10359;53.596;22.520;2022-10-31T14:00:22;7.00;;;2.00;;
20399;SDS011;10359;53.596;22.520;2022-10-31T14:03:16;3.50;;;1.93;;
20399;SDS011;10359;53.596;22.520;2022-10-31T14:06:36;6.40;;;2.33;;
20399;SDS011;10359;53.596;22.520;2022-10-31T14:09:35;5.03;;;1.73;;
20399;SDS011;10359;53.596;22.520;2022-10-31T14:12:29;4.53;;;1.80;;
20399;SDS011;10359;53.596;22.520;2022-10-31T14:15:21;4.63;;;1.80;;
20399;SDS011;10359;53.596;22.520;2022-10-31T14:18:19;5.70;;;2.00;;
20399;SDS011;10359;53.596;22.520;2022-10-31T14:21:15;4.43;;;2.07;;
20399;SDS011;10359;53.596;22.520;2022-10-31T14:24:30;4.73;;;1.90;;
20399;SDS011;10359;53.596;22.520;2022-10-31T14:27:34;3.60;;;2.00;;
20399;SDS011;10359;53.596;22.520;2022-10-31T14:30:33;3.57;;;2.20;;
20399;SDS011;10359;53.596;22.520;2022-10-31T14:33:25;3.83;;;1.90;;
20399;SDS011;10359;53.596;22.520;2022-10-31T14:36:17;5.23;;;2.00;;
20399;SDS011;10359;53.596;22.520;2022-10-31T14:39:23;5.60;;;2.20;;
20399;SDS011;10359;53.596;22.520;2022-10-31T14:42:22;2.57;;;1.50;;
20399;SDS011;10359;53.596;22.520;2022-10-31T14:45:25;3.57;;;1.97;;
20399;SDS011;10359;53.596;22.520;2022-10-31T14:48:28;7.67;;;2.40;;
20399;SDS011;10359;53.596;22.520;2022-10-31T14:51:26;3.50;;;1.90;;
20399;SDS011;10359;53.596;22.520;2022-10-31T14:54:25;5.23;;;1.97;;
20399;SDS011;10359;53.596;22.520;2022-10-31T14:57:20;6.80;;;2.10;;
20399;SDS011;10359;53.596;22.520;2022-10-31T15:00:15;4.60;;;1.93;;
20399;SDS011;10359;53.596;22.520;2022-10-31T15:03:08;7.47;;;2.13;;
20399;SDS011;10359;53.596;22.520;2022-10-31T15:06:04;4.70;;;1.80;;
20399;SDS011;10359;53.596;22.520;2022-10-31T15:08:59;2.73;;;1.80;;
20399;SDS011;10359;53.596;22.520;2022-10-31T15:11:50;3.90;;;1.93;;
20399;SDS011;10359;53.596;22.520;2022-10-31T15:14:40;3.30;;;1.63;;
20399;SDS011;10359;53.596;22.520;2022-10-31T15:17:29;6.00;;;2.00;;
20399;SDS011;10359;53.596;22.520;2022-10-31T15:20:19;6.67;;;2.10;;
20399;SDS011;10359;53.596;22.520;2022-10-31T15:23:12;5.90;;;2.00;;
20399;SDS011;10359;53.596;22.520;2022-10-31T15:26:04;3.07;;;1.80;;
20399;SDS011;10359;53.596;22.520;2022-10-31T15:28:59;3.80;;;2.20;;
20399;SDS011;10359;53.596;22.520;2022-10-31T15:31:49;4.37;;;2.07;;
20399;SDS011;10359;53.596;22.520;2022-10-31T15:34:40;3.93;;;2.10;;
20399;SDS011;10359;53.596;22.520;2022-10-31T15:37:30;5.40;;;2.37;;
20399;SDS011;10359;53.596;22.520;2022-10-31T15:40:20;5.13;;;2.70;;
20399;SDS011;10359;53.596;22.520;2022-10-31T15:43:13;5.13;;;2.53;;
20399;SDS011;10359;53.596;22.520;2022-10-31T15:46:07;5.67;;;2.60;;
20399;SDS011;10359;53.596;22.520;2022-10-31T15:48:57;8.03;;;2.40;;
20399;SDS011;10359;53.596;22.520;2022-10-31T15:51:47;4.73;;;2.50;;
20399;SDS011;10359;53.596;22.520;2022-10-31T15:54:42;5.83;;;2.67;;
20399;SDS011;10359;53.596;22.520;2022-10-31T15:57:38;5.20;;;2.40;;
20399;SDS011;10359;53.596;22.520;2022-10-31T16:00:29;6.53;;;2.80;;
20399;SDS011;10359;53.596;22.520;2022-10-31T16:03:23;6.87;;;2.60;;
20399;SDS011;10359;53.596;22.520;2022-10-31T16:06:18;6.83;;;2.93;;
20399;SDS011;10359;53.596;22.520;2022-10-31T16:09:18;7.30;;;2.93;;
20399;SDS011;10359;53.596;22.520;2022-10-31T16:12:11;5.93;;;2.47;;
20399;SDS011;10359;53.596;22.520;2022-10-31T16:15:13;6.87;;;2.67;;
20399;SDS011;10359;53.596;22.520;2022-10-31T16:18:03;6.23;;;3.03;;
20399;SDS011;10359;53.596;22.520;2022-10-31T16:20:54;10.60;;;3.60;;
20399;SDS011;10359;53.596;22.520;2022-10-31T16:23:45;6.37;;;3.03;;
20399;SDS011;10359;53.596;22.520;2022-10-31T16:26:46;5.10;;;2.87;;
20399;SDS011;10359;53.596;22.520;2022-10-31T16:29:42;7.13;;;3.17;;
20399;SDS011;10359;53.596;22.520;2022-10-31T16:32:33;4.17;;;2.60;;
20399;SDS011;10359;53.596;22.520;2022-10-31T16:35:25;5.43;;;3.10;;
20399;SDS011;10359;53.596;22.520;2022-10-31T16:38:17;5.30;;;3.73;;
20399;SDS011;10359;53.596;22.520;2022-10-31T16:41:06;9.60;;;3.47;;
20399;SDS011;10359;53.596;22.520;2022-10-31T16:43:56;9.00;;;3.10;;
20399;SDS011;10359;53.596;22.520;2022-10-31T16:46:45;10.00;;;3.37;;
20399;SDS011;10359;53.596;22.520;2022-10-31T16:49:35;7.13;;;2.70;;
20399;SDS011;10359;53.596;22.520;2022-10-31T16:52:24;7.57;;;3.83;;
20399;SDS011;10359;53.596;22.520;2022-10-31T16:55:30;10.60;;;3.17;;
20399;SDS011;10359;53.596;22.520;2022-10-31T16:58:22;11.07;;;3.23;;
20399;SDS011;10359;53.596;22.520;2022-10-31T17:01:13;10.33;;;4.20;;
20399;SDS011;10359;53.596;22.520;2022-10-31T17:04:03;7.53;;;2.90;;
20399;SDS011;10359;53.596;22.520;2022-10-31T17:06:52;10.03;;;4.20;;
20399;SDS011;10359;53.596;22.520;2022-10-31T17:09:41;9.57;;;3.80;;